Time;durP1;ratioP1;P1;durP2;ratioP2;P2;SDS_P1;SDS_P2;PMS_P1;PMS_P2;Temp;Humidity;BMP_temperature;BMP_pressure;BME280_temperature;BME280_humidity;BME280_pressure;Samples;Min_cycle;Max_cycle;Signal;HPM_P1;HPM_P2
2024/02/18 00:01:39;;;;;;;14.20;8.83;;;8.40;84.30;;;;;;5031275;28;20468;-76
2024/02/18 00:04:05;;;;;;;15.70;8.13;;;8.50;84.10;;;;;;5031291;28;20472;-73
2024/02/18 00:06:30;;;;;;;15.13;8.53;;;8.60;84.10;;;;;;5031066;28;20224;-73
2024/02/18 00:08:56;;;;;;;16.23;8.03;;;8.60;83.80;;;;;;5031457;28;20181;-72
2024/02/18 00:11:22;;;;;;;18.20;9.43;;;8.50;83.70;;;;;;5031084;28;20576;-73
2024/02/18 00:13:47;;;;;;;15.43;8.97;;;8.50;84.00;;;;;;5040130;28;20249;-73
2024/02/18 00:16:13;;;;;;;14.80;9.13;;;8.50;84.00;;;;;;5031189;28;20192;-73
2024/02/18 00:18:38;;;;;;;16.53;10.00;;;8.40;83.80;;;;;;5034953;28;20193;-74
2024/02/18 00:21:04;;;;;;;17.80;8.37;;;8.40;83.80;;;;;;5029837;28;20201;-74
2024/02/18 00:23:30;;;;;;;12.80;8.40;;;8.50;83.40;;;;;;5033919;28;20974;-75
2024/02/18 00:25:55;;;;;;;15.20;8.20;;;8.50;83.10;;;;;;5029633;28;20749;-74
2024/02/18 00:28:21;;;;;;;20.23;10.20;;;8.50;83.10;;;;;;5032885;28;20189;-74
2024/02/18 00:30:50;;;;;;;19.20;10.27;;;8.40;83.40;;;;;;5034391;28;20213;-74
2024/02/18 00:33:18;;;;;;;15.73;9.17;;;8.40;83.70;;;;;;5036910;28;20420;-73
2024/02/18 00:35:43;;;;;;;15.87;8.40;;;8.50;84.00;;;;;;5041276;28;20435;-73
2024/02/18 00:38:09;;;;;;;14.47;8.30;;;8.50;83.40;;;;;;5034096;28;20416;-80
2024/02/18 00:40:35;;;;;;;12.80;9.77;;;8.50;83.10;;;;;;5026827;28;20900;-71
2024/02/18 00:43:00;;;;;;;13.43;8.07;;;8.50;83.30;;;;;;5031250;28;20207;-74
2024/02/18 00:45:26;;;;;;;18.33;9.63;;;8.50;83.60;;;;;;5033674;28;20292;-74
2024/02/18 00:47:51;;;;;;;16.07;8.90;;;8.50;83.80;;;;;;5029267;28;20585;-74
2024/02/18 00:50:17;;;;;;;13.40;7.80;;;8.40;83.80;;;;;;5026187;28;20192;-76
2024/02/18 00:52:42;;;;;;;14.10;8.10;;;8.50;84.30;;;;;;5030361;28;20641;-74
2024/02/18 00:55:08;;;;;;;12.53;8.43;;;8.60;84.30;;;;;;5033072;28;20193;-73
2024/02/18 00:57:34;;;;;;;14.60;8.37;;;8.70;84.30;;;;;;5029863;28;20178;-76
2024/02/18 01:00:00;;;;;;;13.43;7.97;;;8.80;84.10;;;;;;5037163;28;20185;-74
2024/02/18 01:02:29;;;;;;;15.93;7.63;;;8.90;83.70;;;;;;5028189;28;20570;-75
2024/02/18 01:04:58;;;;;;;16.33;8.00;;;8.90;83.70;;;;;;5033803;28;20502;-74
2024/02/18 01:07:24;;;;;;;14.03;8.67;;;8.90;83.40;;;;;;5031890;28;20443;-74
2024/02/18 01:09:50;;;;;;;13.90;7.80;;;9.00;83.10;;;;;;5029912;28;20537;-75
2024/02/18 01:12:16;;;;;;;17.03;9.07;;;9.10;82.50;;;;;;5035380;28;20219;-76
2024/02/18 01:14:45;;;;;;;15.00;8.77;;;9.00;82.40;;;;;;5026273;28;20188;-73
2024/02/18 01:17:11;;;;;;;14.67;8.13;;;9.00;82.50;;;;;;5028269;28;20618;-73
2024/02/18 01:19:36;;;;;;;18.27;8.10;;;9.00;82.70;;;;;;5025069;28;20955;-74
2024/02/18 01:22:02;;;;;;;14.00;7.73;;;9.00;82.50;;;;;;5029786;28;20314;-74
2024/02/18 01:24:28;;;;;;;18.57;7.93;;;9.00;82.20;;;;;;5030932;28;20236;-73
2024/02/18 01:26:54;;;;;;;15.20;8.53;;;9.10;81.90;;;;;;5028003;28;20452;-72
2024/02/18 01:29:21;;;;;;;18.67;9.13;;;9.00;81.70;;;;;;5036792;28;20638;-72
2024/02/18 01:31:47;;;;;;;15.17;9.13;;;8.90;81.90;;;;;;5025050;28;20455;-72
2024/02/18 01:34:13;;;;;;;13.70;7.70;;;8.80;82.40;;;;;;5036481;28;20424;-74
2024/02/18 01:36:38;;;;;;;13.93;7.93;;;8.80;82.50;;;;;;5031629;28;20182;-75
2024/02/18 01:39:04;;;;;;;12.50;7.90;;;8.80;82.20;;;;;;5032083;28;20561;-73
2024/02/18 01:41:29;;;;;;;19.20;8.70;;;8.70;82.40;;;;;;5028439;28;20213;-72
2024/02/18 01:43:55;;;;;;;16.73;7.90;;;8.60;82.70;;;;;;5036238;28;20237;-72
2024/02/18 01:46:21;;;;;;;16.57;8.67;;;8.60;83.10;;;;;;5034198;28;20213;-73
2024/02/18 01:48:48;;;;;;;14.60;9.27;;;8.70;83.40;;;;;;5034248;28;20246;-73
2024/02/18 01:51:13;;;;;;;17.20;8.37;;;8.60;83.10;;;;;;5034996;28;20534;-74
2024/02/18 01:53:40;;;;;;;14.07;7.30;;;8.50;83.40;;;;;;5044038;28;20447;-79
2024/02/18 01:56:07;;;;;;;12.67;6.90;;;8.60;83.70;;;;;;5038407;28;20863;-73
2024/02/18 01:58:34;;;;;;;14.60;8.17;;;8.70;83.40;;;;;;5040028;28;20815;-75
2024/02/18 02:01:00;;;;;;;17.10;7.90;;;8.80;82.80;;;;;;5031966;28;20455;-74
2024/02/18 02:03:27;;;;;;;19.87;8.07;;;8.70;82.70;;;;;;5035768;28;20463;-74
2024/02/18 02:05:54;;;;;;;12.20;8.27;;;8.70;82.70;;;;;;5033434;28;20440;-74
2024/02/18 02:08:21;;;;;;;15.50;8.60;;;8.50;83.30;;;;;;5030859;28;20792;-73
2024/02/18 02:10:47;;;;;;;11.97;7.70;;;8.40;83.40;;;;;;5027646;28;20453;-74
2024/02/18 02:13:12;;;;;;;15.00;9.00;;;8.40;83.70;;;;;;5039390;28;20518;-73
2024/02/18 02:15:40;;;;;;;17.03;8.70;;;8.40;84.10;;;;;;5027195;28;20224;-72
2024/02/18 02:18:06;;;;;;;19.70;9.37;;;8.40;84.10;;;;;;5028769;28;20189;-73
2024/02/18 02:20:31;;;;;;;15.30;9.50;;;8.40;84.30;;;;;;5032070;28;20477;-73
2024/02/18 02:22:57;;;;;;;17.67;10.27;;;8.40;84.60;;;;;;5032562;28;20178;-74
2024/02/18 02:25:23;;;;;;;16.20;9.20;;;8.40;84.90;;;;;;5029398;28;20177;-75
2024/02/18 02:28:13;;;;;;;15.27;8.40;;;8.50;84.70;;;;;;5028723;28;20229;-76
2024/02/18 02:30:38;;;;;;;16.27;8.70;;;8.60;84.30;;;;;;5027742;28;20710;-73
2024/02/18 02:33:04;;;;;;;24.53;8.37;;;8.50;84.10;;;;;;5036395;28;20932;-74
2024/02/18 02:35:30;;;;;;;15.70;8.30;;;8.40;84.30;;;;;;5038487;28;20634;-73
2024/02/18 02:37:59;;;;;;;14.10;7.87;;;8.40;84.70;;;;;;5041848;28;20217;-74
2024/02/18 02:40:25;;;;;;;23.13;10.03;;;8.50;84.90;;;;;;5040818;28;20200;-74
2024/02/18 02:42:51;;;;;;;19.20;9.30;;;8.50;84.90;;;;;;5033142;28;20426;-74
2024/02/18 02:45:17;;;;;;;15.33;8.63;;;8.40;84.90;;;;;;5029032;28;20471;-74
2024/02/18 02:47:42;;;;;;;23.00;9.17;;;8.50;84.90;;;;;;5030849;28;20506;-73
2024/02/18 02:50:08;;;;;;;20.00;9.37;;;8.40;84.90;;;;;;5029587;28;20212;-76
2024/02/18 02:52:34;;;;;;;13.77;7.77;;;8.40;84.90;;;;;;5029873;28;20250;-71
2024/02/18 02:54:59;;;;;;;13.63;8.67;;;8.40;85.00;;;;;;5031731;28;20189;-72
2024/02/18 02:57:25;;;;;;;14.40;7.80;;;8.40;84.90;;;;;;5030246;28;20205;-72
2024/02/18 02:59:50;;;;;;;17.27;8.37;;;8.40;84.90;;;;;;5027390;28;20201;-72
2024/02/18 03:02:16;;;;;;;13.53;7.73;;;8.40;84.60;;;;;;5025032;28;20201;-75
2024/02/18 03:04:42;;;;;;;14.43;8.10;;;8.40;84.70;;;;;;5022780;28;20693;-74
2024/02/18 03:07:07;;;;;;;15.27;8.30;;;8.30;84.60;;;;;;5021965;28;20181;-72
2024/02/18 03:09:33;;;;;;;21.30;8.90;;;8.30;84.70;;;;;;5021979;28;20196;-73
2024/02/18 03:11:58;;;;;;;13.63;7.97;;;8.20;84.70;;;;;;5012820;28;20208;-72
2024/02/18 03:14:24;;;;;;;13.47;7.10;;;8.20;84.70;;;;;;5021839;28;20205;-73
2024/02/18 03:16:50;;;;;;;19.30;9.07;;;8.10;84.90;;;;;;5028939;28;20642;-75
2024/02/18 03:19:15;;;;;;;18.13;9.80;;;8.10;85.00;;;;;;5028295;28;20665;-76
2024/02/18 03:21:41;;;;;;;14.03;9.47;;;8.00;85.20;;;;;;5019634;28;20210;-72
2024/02/18 03:24:07;;;;;;;17.90;11.10;;;8.00;85.30;;;;;;5023794;28;20212;-72
2024/02/18 03:26:34;;;;;;;16.50;9.77;;;8.10;85.50;;;;;;5029952;28;20177;-73
2024/02/18 03:29:00;;;;;;;17.30;9.63;;;7.90;85.30;;;;;;5029251;28;20553;-74
2024/02/18 03:31:26;;;;;;;22.37;10.93;;;8.00;85.50;;;;;;5024105;28;20452;-74
2024/02/18 03:33:51;;;;;;;16.20;10.03;;;8.00;85.60;;;;;;5024110;28;20691;-74
2024/02/18 03:36:17;;;;;;;17.87;10.20;;;7.90;85.50;;;;;;5029885;28;20178;-74
2024/02/18 03:38:42;;;;;;;14.73;9.07;;;7.90;85.70;;;;;;5028159;28;20242;-72
2024/02/18 03:41:08;;;;;;;15.73;8.97;;;7.90;85.70;;;;;;5025771;28;20205;-73
2024/02/18 03:43:34;;;;;;;16.80;9.20;;;7.90;85.90;;;;;;5029702;28;20246;-72
2024/02/18 03:46:01;;;;;;;24.17;12.40;;;7.80;85.70;;;;;;5033035;28;20894;-73
2024/02/18 03:48:27;;;;;;;17.50;9.57;;;7.70;85.70;;;;;;5030720;28;20423;-72
2024/02/18 03:50:53;;;;;;;18.10;9.67;;;7.70;86.00;;;;;;5030015;28;20836;-75
2024/02/18 03:53:18;;;;;;;13.07;8.00;;;7.70;86.20;;;;;;5029027;28;20232;-75
2024/02/18 03:55:44;;;;;;;17.57;9.40;;;7.90;86.20;;;;;;5033926;28;20189;-76
2024/02/18 03:58:11;;;;;;;17.30;10.00;;;7.80;85.70;;;;;;5033278;28;20609;-74
2024/02/18 04:00:37;;;;;;;18.97;10.17;;;7.60;85.60;;;;;;5033460;28;20205;-73
2024/02/18 04:03:03;;;;;;;16.97;9.07;;;7.40;85.70;;;;;;5030020;28;20412;-71
2024/02/18 04:05:28;;;;;;;27.77;10.10;;;7.30;86.00;;;;;;5028811;28;21415;-73
2024/02/18 04:07:54;;;;;;;14.30;9.13;;;7.30;86.30;;;;;;5031017;28;20443;-74
2024/02/18 04:10:20;;;;;;;17.57;10.03;;;7.30;86.60;;;;;;5030059;28;20663;-73
2024/02/18 04:12:45;;;;;;;17.13;9.97;;;7.30;86.80;;;;;;5020083;28;20245;-76
2024/02/18 04:15:11;;;;;;;15.50;8.73;;;7.30;86.90;;;;;;5026820;28;20544;-72
2024/02/18 04:17:36;;;;;;;16.33;9.63;;;7.20;87.00;;;;;;5032935;28;20185;-76
2024/02/18 04:20:03;;;;;;;19.90;10.00;;;7.30;87.10;;;;;;5028785;28;20186;-74
2024/02/18 04:22:29;;;;;;;18.00;11.07;;;7.30;87.00;;;;;;5020699;28;20194;-72
2024/02/18 04:24:54;;;;;;;15.10;9.20;;;7.20;86.90;;;;;;5025910;28;20832;-73
2024/02/18 04:27:20;;;;;;;23.80;10.67;;;7.20;87.00;;;;;;5032684;28;20323;-72
2024/02/18 04:29:46;;;;;;;20.00;10.20;;;7.20;87.10;;;;;;5034960;28;20673;-75
2024/02/18 04:32:13;;;;;;;21.90;11.23;;;7.20;87.30;;;;;;5032519;28;20209;-73
2024/02/18 04:34:38;;;;;;;21.23;11.97;;;7.10;87.10;;;;;;5033274;28;21064;-74
2024/02/18 04:37:04;;;;;;;16.43;10.60;;;7.00;87.30;;;;;;5032724;28;20416;-73
2024/02/18 04:39:30;;;;;;;20.07;11.67;;;6.90;87.40;;;;;;5033581;28;20241;-71
2024/02/18 04:41:55;;;;;;;21.23;11.67;;;7.00;87.70;;;;;;5028828;28;20348;-73
2024/02/18 04:44:21;;;;;;;18.73;10.10;;;7.00;87.80;;;;;;5031749;28;20208;-74
2024/02/18 04:46:46;;;;;;;20.13;10.70;;;6.90;87.70;;;;;;5035896;28;20629;-75
2024/02/18 04:49:14;;;;;;;16.90;11.37;;;6.90;87.70;;;;;;5030166;28;20217;-74
2024/02/18 04:51:39;;;;;;;17.93;10.70;;;7.00;87.70;;;;;;5024928;28;20198;-75
2024/02/18 04:54:05;;;;;;;23.17;12.20;;;7.00;87.80;;;;;;5030730;28;21116;-72
2024/02/18 04:56:30;;;;;;;23.90;11.40;;;7.00;87.70;;;;;;5031893;28;20180;-75
2024/02/18 04:58:56;;;;;;;19.80;11.97;;;7.00;87.40;;;;;;5031979;28;20211;-73
2024/02/18 05:01:22;;;;;;;18.23;10.67;;;6.90;87.40;;;;;;5033332;28;20201;-73
2024/02/18 05:03:47;;;;;;;22.57;11.40;;;6.90;87.80;;;;;;5033019;28;20205;-71
2024/02/18 05:06:13;;;;;;;24.30;11.80;;;7.00;87.70;;;;;;5038125;28;20213;-72
2024/02/18 05:08:38;;;;;;;20.50;12.00;;;7.00;87.70;;;;;;5030316;28;20677;-73
2024/02/18 05:11:04;;;;;;;19.67;11.83;;;6.90;87.40;;;;;;5031119;28;20201;-73
2024/02/18 05:13:30;;;;;;;21.20;13.20;;;6.90;87.40;;;;;;5033042;28;20350;-72
2024/02/18 05:15:56;;;;;;;22.30;13.40;;;6.90;87.70;;;;;;5032399;28;20956;-73
2024/02/18 05:18:22;;;;;;;21.40;13.10;;;6.90;87.70;;;;;;5031519;28;20657;-73
2024/02/18 05:20:48;;;;;;;19.90;11.17;;;6.80;87.80;;;;;;5028140;28;20327;-76
2024/02/18 05:23:13;;;;;;;28.63;13.73;;;6.90;88.00;;;;;;5032268;28;20447;-72
2024/02/18 05:25:39;;;;;;;25.40;13.00;;;6.90;88.00;;;;;;5033254;28;20582;-73
2024/02/18 05:28:06;;;;;;;20.40;13.50;;;6.80;87.70;;;;;;5032434;28;20188;-74
2024/02/18 05:30:31;;;;;;;24.27;13.90;;;6.70;87.60;;;;;;5032630;28;20208;-72
2024/02/18 05:32:57;;;;;;;21.53;12.17;;;6.80;87.70;;;;;;5028592;28;20903;-73
2024/02/18 05:35:22;;;;;;;24.53;13.70;;;6.80;87.70;;;;;;5035502;28;20208;-72
2024/02/18 05:37:48;;;;;;;26.27;13.83;;;6.70;87.70;;;;;;5030638;28;20185;-73
2024/02/18 05:40:14;;;;;;;26.00;14.37;;;6.60;87.60;;;;;;5029596;28;20181;-72
2024/02/18 05:42:39;;;;;;;24.40;12.63;;;6.60;87.80;;;;;;5038720;28;20193;-76
2024/02/18 05:45:06;;;;;;;25.50;13.63;;;6.60;87.80;;;;;;5034482;28;20258;-74
2024/02/18 05:47:32;;;;;;;30.30;14.10;;;6.50;87.80;;;;;;5030065;28;20193;-72
2024/02/18 05:49:58;;;;;;;22.53;12.30;;;6.50;88.10;;;;;;5030853;28;20923;-73
2024/02/18 05:52:23;;;;;;;28.27;14.23;;;6.50;88.10;;;;;;5028871;28;20452;-73
2024/02/18 05:54:49;;;;;;;22.73;12.93;;;6.40;88.10;;;;;;5033477;28;20192;-74
2024/02/18 05:57:14;;;;;;;23.70;13.10;;;6.50;88.40;;;;;;5034177;28;20184;-73
2024/02/18 05:59:40;;;;;;;26.90;12.43;;;6.60;88.40;;;;;;5031101;28;20200;-72
2024/02/18 06:02:06;;;;;;;23.60;12.87;;;6.50;88.30;;;;;;5031107;28;20713;-73
2024/02/18 06:04:31;;;;;;;18.97;10.70;;;6.50;88.10;;;;;;5033006;28;20201;-73
2024/02/18 06:06:57;;;;;;;22.80;12.00;;;6.60;88.30;;;;;;5032799;28;20185;-72
2024/02/18 06:09:23;;;;;;;25.47;13.90;;;6.60;88.10;;;;;;5032686;28;20229;-74
2024/02/18 06:11:50;;;;;;;25.77;12.73;;;6.50;88.00;;;;;;5030166;28;20455;-72
2024/02/18 06:14:16;;;;;;;22.10;10.80;;;6.50;88.10;;;;;;5031611;28;20428;-77
2024/02/18 06:16:41;;;;;;;24.37;12.03;;;6.50;88.30;;;;;;5027057;28;20461;-73
2024/02/18 06:19:07;;;;;;;29.17;14.10;;;6.50;88.30;;;;;;5027488;28;20181;-72
2024/02/18 06:21:33;;;;;;;22.70;12.43;;;6.50;88.30;;;;;;5033600;28;20287;-72
2024/02/18 06:23:59;;;;;;;21.00;11.73;;;6.40;88.30;;;;;;5028186;28;20317;-72
2024/02/18 06:26:25;;;;;;;26.00;12.80;;;6.50;88.30;;;;;;5033583;28;20185;-73
2024/02/18 06:28:50;;;;;;;24.30;13.30;;;6.40;88.10;;;;;;5032414;28;20419;-73
2024/02/18 06:31:17;;;;;;;31.33;14.13;;;6.40;88.10;;;;;;5030707;28;20204;-74
2024/02/18 06:33:46;;;;;;;24.87;12.60;;;6.40;88.10;;;;;;5041708;28;20207;-72
2024/02/18 06:36:12;;;;;;;26.70;14.43;;;6.50;88.30;;;;;;5032111;28;20972;-73
2024/02/18 06:38:44;;;;;;;32.47;15.43;;;6.50;88.30;;;;;;5035580;28;20483;-74
2024/02/18 06:41:10;;;;;;;28.57;14.23;;;6.40;88.10;;;;;;5028444;28;20542;-75
2024/02/18 06:43:36;;;;;;;23.67;13.23;;;6.40;88.30;;;;;;5046663;28;20620;-74
2024/02/18 06:46:02;;;;;;;24.20;13.83;;;6.50;88.30;;;;;;5044714;28;20558;-72
2024/02/18 06:48:27;;;;;;;25.77;13.83;;;6.60;88.30;;;;;;5041794;28;20519;-74
2024/02/18 06:50:53;;;;;;;29.03;14.50;;;6.60;87.80;;;;;;5038825;28;20211;-72
2024/02/18 06:53:18;;;;;;;33.73;16.60;;;6.60;87.60;;;;;;5043139;28;20246;-73
2024/02/18 06:55:45;;;;;;;27.67;15.43;;;6.70;87.70;;;;;;5036644;28;20245;-71
2024/02/18 06:58:14;;;;;;;32.90;14.80;;;6.70;87.80;;;;;;5037384;28;20268;-71
2024/02/18 07:00:40;;;;;;;23.80;13.90;;;6.70;87.80;;;;;;5026852;28;20456;-74
2024/02/18 07:03:06;;;;;;;22.70;13.67;;;6.70;87.70;;;;;;5032624;28;20460;-70
2024/02/18 07:05:32;;;;;;;25.13;14.03;;;6.80;87.70;;;;;;5031340;28;20436;-75
2024/02/18 07:07:58;;;;;;;21.17;12.00;;;6.90;87.30;;;;;;5033722;28;20963;-71
2024/02/18 07:10:23;;;;;;;24.73;12.30;;;7.00;86.80;;;;;;5025758;28;20444;-75
2024/02/18 07:12:49;;;;;;;20.40;13.13;;;7.00;86.30;;;;;;5037239;28;20420;-72
2024/02/18 07:15:14;;;;;;;22.23;12.13;;;7.10;86.00;;;;;;5029635;28;20177;-73
2024/02/18 07:17:41;;;;;;;25.10;12.30;;;7.10;85.70;;;;;;5030666;28;20180;-74
2024/02/18 07:20:08;;;;;;;22.27;12.77;;;7.00;85.50;;;;;;5034060;28;20197;-74
2024/02/18 07:22:33;;;;;;;27.60;13.10;;;7.00;85.60;;;;;;5038025;28;20435;-72
2024/02/18 07:25:00;;;;;;;25.33;13.13;;;7.10;85.90;;;;;;5034190;28;20622;-72
2024/02/18 07:27:25;;;;;;;27.27;13.70;;;7.20;85.90;;;;;;5032003;28;20184;-72
2024/02/18 07:29:51;;;;;;;27.50;13.90;;;7.30;85.70;;;;;;5034456;28;20420;-73
2024/02/18 07:32:17;;;;;;;25.13;14.80;;;7.30;85.70;;;;;;5034164;28;20196;-73
2024/02/18 07:34:42;;;;;;;23.13;13.23;;;7.40;85.60;;;;;;5033242;28;20205;-71
2024/02/18 07:37:08;;;;;;;33.30;14.63;;;7.40;84.30;;;;;;5034666;28;20193;-73
2024/02/18 07:39:34;;;;;;;25.03;13.37;;;7.20;84.30;;;;;;5032559;28;20177;-72
2024/02/18 07:41:59;;;;;;;28.20;13.90;;;7.10;84.60;;;;;;5033210;28;20201;-71
2024/02/18 07:44:25;;;;;;;21.73;12.37;;;7.10;85.00;;;;;;5043059;28;20682;-73
2024/02/18 07:46:54;;;;;;;28.47;15.63;;;7.10;85.50;;;;;;5042506;28;20232;-72
2024/02/18 07:49:22;;;;;;;23.30;13.20;;;7.10;85.30;;;;;;5036292;28;20231;-74
2024/02/18 07:51:48;;;;;;;27.53;14.50;;;7.10;85.30;;;;;;5032490;28;20451;-71
2024/02/18 07:54:13;;;;;;;22.43;13.43;;;7.10;85.30;;;;;;5032878;28;20431;-73
2024/02/18 07:56:44;;;;;;;24.60;13.77;;;7.10;85.50;;;;;;5035446;28;20519;-74
2024/02/18 07:59:10;;;;;;;27.43;14.63;;;7.10;85.50;;;;;;5029783;28;20193;-72
2024/02/18 08:01:36;;;;;;;24.80;14.27;;;7.20;85.60;;;;;;5027646;28;20464;-73
2024/02/18 08:04:01;;;;;;;25.13;14.27;;;7.10;85.60;;;;;;5039349;28;20525;-72
2024/02/18 08:06:29;;;;;;;24.37;14.03;;;7.30;85.90;;;;;;5033314;28;20554;-73
2024/02/18 08:08:55;;;;;;;25.80;14.20;;;7.40;85.70;;;;;;5032240;28;20192;-73
2024/02/18 08:11:21;;;;;;;28.60;14.37;;;7.50;85.30;;;;;;5028596;28;20849;-72
2024/02/18 08:13:46;;;;;;;25.40;13.70;;;7.60;85.20;;;;;;5042299;28;20432;-73
2024/02/18 08:16:13;;;;;;;32.93;15.07;;;7.80;84.90;;;;;;5032441;28;20402;-73
2024/02/18 08:18:38;;;;;;;20.30;13.63;;;7.90;84.30;;;;;;5036777;28;20257;-74
2024/02/18 08:21:05;;;;;;;23.13;14.10;;;8.00;83.80;;;;;;5038541;28;20456;-72
2024/02/18 08:23:31;;;;;;;25.10;14.40;;;8.10;83.70;;;;;;5047587;28;20226;-72
2024/02/18 08:25:57;;;;;;;21.87;13.50;;;8.20;83.60;;;;;;5031718;28;20428;-73
2024/02/18 08:28:22;;;;;;;25.57;15.63;;;8.10;83.60;;;;;;5035069;28;20173;-76
2024/02/18 08:30:48;;;;;;;24.10;13.87;;;8.20;83.30;;;;;;5033798;28;20963;-73
2024/02/18 08:33:13;;;;;;;22.90;14.07;;;8.30;83.40;;;;;;5037808;28;20207;-73
2024/02/18 08:35:39;;;;;;;25.20;14.63;;;8.50;83.40;;;;;;5035899;28;20182;-74
2024/02/18 08:38:05;;;;;;;31.27;15.67;;;8.70;83.40;;;;;;5043178;28;20276;-73
2024/02/18 08:40:30;;;;;;;23.03;14.57;;;8.70;82.80;;;;;;5043558;28;20322;-71
2024/02/18 08:42:56;;;;;;;27.30;16.13;;;8.90;82.40;;;;;;5038187;28;20193;-72
2024/02/18 08:45:21;;;;;;;21.40;14.00;;;9.00;81.90;;;;;;5043625;28;20229;-72
2024/02/18 08:47:48;;;;;;;25.30;13.90;;;9.10;81.10;;;;;;5037347;28;20268;-74
2024/02/18 08:50:13;;;;;;;25.37;13.93;;;9.40;80.80;;;;;;5039015;28;20185;-74
2024/02/18 08:52:39;;;;;;;24.07;14.83;;;9.60;79.90;;;;;;5033930;28;20444;-75
2024/02/18 08:55:05;;;;;;;24.23;14.30;;;9.80;79.20;;;;;;5028473;28;20251;-74
2024/02/18 08:57:31;;;;;;;21.97;14.33;;;9.90;78.90;;;;;;5032121;28;20232;-77
2024/02/18 08:59:58;;;;;;;24.80;13.73;;;10.00;78.60;;;;;;5038198;28;20846;-73
2024/02/18 09:02:24;;;;;;;24.97;13.93;;;10.20;78.40;;;;;;5033108;28;20211;-73
2024/02/18 09:04:50;;;;;;;21.67;13.57;;;10.30;77.80;;;;;;5041951;28;20523;-74
2024/02/18 09:07:16;;;;;;;24.87;14.00;;;10.50;77.60;;;;;;5038218;28;20427;-74
2024/02/18 09:09:41;;;;;;;23.40;14.93;;;10.60;77.00;;;;;;5043653;28;20193;-75
2024/02/18 09:12:07;;;;;;;22.60;13.47;;;10.80;76.20;;;;;;5043070;28;20216;-74
2024/02/18 09:14:32;;;;;;;23.40;14.60;;;10.90;75.50;;;;;;5041051;28;20218;-74
2024/02/18 09:16:58;;;;;;;20.70;13.10;;;11.10;74.90;;;;;;5040892;28;20201;-72
2024/02/18 09:19:23;;;;;;;23.00;14.93;;;11.10;74.60;;;;;;5032163;28;20628;-73
2024/02/18 09:21:49;;;;;;;21.20;13.80;;;11.20;74.20;;;;;;5030552;28;20213;-73
2024/02/18 09:24:15;;;;;;;21.50;13.93;;;11.10;74.00;;;;;;5038726;28;20201;-74
2024/02/18 09:26:41;;;;;;;24.30;13.73;;;11.10;74.50;;;;;;5034638;28;20686;-74
2024/02/18 09:29:06;;;;;;;23.90;14.33;;;11.30;74.30;;;;;;5042131;28;20551;-73
2024/02/18 09:31:38;;;;;;;22.90;15.20;;;11.30;73.60;;;;;;5040532;28;20485;-72
2024/02/18 09:34:04;;;;;;;23.10;14.43;;;11.20;73.60;;;;;;5035299;28;20189;-73
2024/02/18 09:36:29;;;;;;;29.33;14.77;;;11.20;73.90;;;;;;5027597;28;20427;-72
2024/02/18 09:38:55;;;;;;;24.17;14.63;;;11.50;73.60;;;;;;5031544;28;20646;-72
2024/02/18 09:41:24;;;;;;;24.10;13.60;;;11.40;72.40;;;;;;5034206;28;20197;-72
2024/02/18 09:43:53;;;;;;;22.50;13.57;;;11.50;73.50;;;;;;5040716;28;20220;-71
2024/02/18 09:46:20;;;;;;;24.97;14.20;;;11.70;72.30;;;;;;5031136;28;20439;-72
2024/02/18 09:48:46;;;;;;;21.67;13.60;;;11.90;72.10;;;;;;5030036;28;20412;-74
2024/02/18 09:51:15;;;;;;;21.23;13.87;;;12.30;71.40;;;;;;5030728;28;20511;-71
2024/02/18 09:53:41;;;;;;;19.90;12.17;;;12.40;69.90;;;;;;5036523;28;20181;-73
2024/02/18 09:56:07;;;;;;;18.93;11.57;;;12.60;69.70;;;;;;5030746;28;20488;-71
2024/02/18 09:58:33;;;;;;;17.23;10.83;;;12.80;69.20;;;;;;5028911;28;20453;-73
2024/02/18 10:01:01;;;;;;;13.83;9.10;;;12.90;67.60;;;;;;5029200;28;20464;-72
2024/02/18 10:03:27;;;;;;;18.17;10.20;;;13.10;66.90;;;;;;5035518;28;20425;-71
2024/02/18 10:05:54;;;;;;;18.43;11.50;;;13.20;65.30;;;;;;5027957;28;20506;-73
2024/02/18 10:08:19;;;;;;;18.70;12.40;;;13.00;66.40;;;;;;5031808;28;20878;-72
2024/02/18 10:10:46;;;;;;;8.90;6.57;;;13.00;66.60;;;;;;5027875;28;20539;-72
2024/02/18 10:13:12;;;;;;;12.90;8.60;;;13.10;64.80;;;;;;5032429;28;20230;-72
2024/02/18 10:15:37;;;;;;;14.80;7.23;;;13.10;65.00;;;;;;5027666;28;20408;-71
2024/02/18 10:18:05;;;;;;;12.40;6.60;;;13.00;64.50;;;;;;5031232;28;20423;-71
2024/02/18 10:20:31;;;;;;;13.63;7.30;;;13.20;63.90;;;;;;5029947;28;20235;-72
2024/02/18 10:22:56;;;;;;;13.00;6.80;;;13.00;63.70;;;;;;5033256;28;20404;-73
2024/02/18 10:25:22;;;;;;;8.80;6.20;;;12.90;63.70;;;;;;5033480;28;20222;-73
2024/02/18 10:27:47;;;;;;;11.50;6.60;;;12.80;63.80;;;;;;5031321;28;20177;-75
2024/02/18 10:30:13;;;;;;;9.80;5.80;;;12.80;63.90;;;;;;5034784;28;20181;-74
2024/02/18 10:32:39;;;;;;;10.07;6.33;;;12.80;63.90;;;;;;5031989;28;20212;-74
2024/02/18 10:35:05;;;;;;;8.10;5.93;;;12.90;64.40;;;;;;5039978;28;20435;-74
2024/02/18 10:37:39;;;;;;;11.00;6.57;;;13.00;64.50;;;;;;5036603;28;20185;-73
2024/02/18 10:40:13;;;;;;;10.90;6.83;;;13.10;63.90;;;;;;5032950;28;20481;-74
2024/02/18 10:42:43;;;;;;;10.73;7.00;;;13.20;63.70;;;;;;5032277;28;20462;-74
2024/02/18 10:45:11;;;;;;;10.37;6.80;;;13.40;63.50;;;;;;5032739;28;20499;-72
2024/02/18 10:47:41;;;;;;;7.90;5.17;;;13.50;63.70;;;;;;5030719;28;20432;-74
2024/02/18 10:50:09;;;;;;;10.80;6.63;;;13.50;62.90;;;;;;5037399;28;20424;-73
2024/02/18 10:52:41;;;;;;;14.43;5.87;;;13.50;63.10;;;;;;5041593;28;20573;-73
2024/02/18 10:55:51;;;;;;;11.27;6.37;;;13.50;63.20;;;;;;5041032;28;20433;-73
2024/02/18 10:58:34;;;;;;;13.03;6.17;;;13.50;63.70;;;;;;5039706;28;20466;-74
2024/02/18 11:01:03;;;;;;;8.50;5.27;;;13.70;63.20;;;;;;5029293;28;21032;-74
2024/02/18 11:04:03;;;;;;;7.00;5.30;;;14.00;63.20;;;;;;5040991;28;20422;-74
2024/02/18 11:06:30;;;;;;;8.97;6.13;;;14.20;62.50;;;;;;5024118;28;20426;-73
2024/02/18 11:08:56;;;;;;;8.73;5.60;;;14.00;62.60;;;;;;5032483;28;20444;-73
2024/02/18 11:11:25;;;;;;;10.37;5.10;;;13.90;63.20;;;;;;5033061;28;21066;-73
2024/02/18 11:13:52;;;;;;;8.57;5.70;;;13.80;63.50;;;;;;5031331;28;20420;-72
2024/02/18 11:16:19;;;;;;;7.73;5.00;;;13.80;63.10;;;;;;5028755;28;20762;-73
2024/02/18 11:18:45;;;;;;;12.97;4.80;;;13.80;62.90;;;;;;5034267;28;20478;-73
2024/02/18 11:21:13;;;;;;;11.43;6.00;;;13.80;63.40;;;;;;5033678;28;20451;-72
2024/02/18 11:23:46;;;;;;;7.60;4.47;;;13.70;63.50;;;;;;5027212;28;20838;-74
2024/02/18 11:26:12;;;;;;;7.70;5.30;;;13.70;63.70;;;;;;5037177;28;20435;-72
2024/02/18 11:28:38;;;;;;;6.90;4.60;;;13.70;63.70;;;;;;5036184;28;20431;-74
2024/02/18 11:31:04;;;;;;;8.97;5.00;;;13.70;63.80;;;;;;5034458;28;20455;-74
2024/02/18 11:33:32;;;;;;;6.90;4.60;;;13.90;63.20;;;;;;5040176;28;20188;-74
2024/02/18 11:36:13;;;;;;;9.90;5.20;;;14.00;63.50;;;;;;5034880;28;20212;-74
2024/02/18 11:38:45;;;;;;;6.33;4.57;;;14.20;62.90;;;;;;5026863;28;20866;-73
2024/02/18 11:41:24;;;;;;;6.90;5.17;;;14.30;62.60;;;;;;5032526;28;20455;-73
2024/02/18 11:43:53;;;;;;;7.40;5.20;;;14.40;62.60;;;;;;5039871;28;20489;-74
2024/02/18 11:46:22;;;;;;;11.57;4.97;;;14.50;62.30;;;;;;5041705;28;20440;-74
2024/02/18 11:48:48;;;;;;;6.23;4.67;;;14.50;61.30;;;;;;5036279;28;20458;-73
2024/02/18 11:51:15;;;;;;;9.60;4.97;;;14.40;61.70;;;;;;5036605;28;20487;-72
2024/02/18 11:53:41;;;;;;;10.00;4.40;;;14.50;61.50;;;;;;5044270;28;20447;-73
2024/02/18 11:56:07;;;;;;;6.33;4.83;;;14.60;61.90;;;;;;5043025;28;20431;-74
2024/02/18 11:58:33;;;;;;;7.60;4.30;;;14.70;61.50;;;;;;5036185;28;20559;-72
2024/02/18 12:01:03;;;;;;;6.37;4.37;;;14.90;61.60;;;;;;5033040;28;20506;-73
2024/02/18 12:03:31;;;;;;;6.17;4.10;;;14.90;61.50;;;;;;5041233;28;20174;-74
2024/02/18 12:05:58;;;;;;;7.10;4.60;;;14.90;60.70;;;;;;5038901;28;20436;-73
2024/02/18 12:08:25;;;;;;;6.10;4.27;;;14.90;60.90;;;;;;5041430;28;20508;-74
2024/02/18 12:10:51;;;;;;;6.70;4.30;;;14.80;61.20;;;;;;5027919;28;20466;-74
2024/02/18 12:13:17;;;;;;;6.60;4.20;;;14.90;61.20;;;;;;5047602;28;20572;-74
2024/02/18 12:15:45;;;;;;;5.80;4.37;;;14.90;60.90;;;;;;5036327;28;20316;-73
2024/02/18 12:18:11;;;;;;;8.37;4.37;;;14.90;60.90;;;;;;5036747;28;20211;-75
2024/02/18 12:20:37;;;;;;;7.03;4.60;;;14.90;60.70;;;;;;5029995;28;20518;-75
2024/02/18 12:23:06;;;;;;;7.20;4.30;;;14.60;60.90;;;;;;5041329;28;20535;-72
2024/02/18 12:25:39;;;;;;;8.50;4.70;;;14.40;61.20;;;;;;5033680;28;20263;-74
2024/02/18 12:28:06;;;;;;;7.33;4.47;;;14.40;61.70;;;;;;5030241;28;20432;-73
2024/02/18 12:30:32;;;;;;;7.07;4.53;;;14.40;61.50;;;;;;5030283;28;21091;-73
2024/02/18 12:32:57;;;;;;;5.20;3.70;;;14.40;61.20;;;;;;5036274;28;20419;-72
2024/02/18 12:35:24;;;;;;;7.73;4.90;;;14.40;61.70;;;;;;5034512;28;20190;-73
2024/02/18 12:37:49;;;;;;;10.90;4.70;;;14.60;61.20;;;;;;5032956;28;20203;-74